Flight Track Log - Related Links

Times and Time Zones

All times are in EDT time to prevent confusion due to time zone crossing. See the UAL4530 flight status page for this flight to view local times or setup timezone preferences in your user account.

Time Position Orientation Groundspeed Altitude Reporting Facility
EDT Latitude Longitude Course Direction KTS MPH feet Rate Location/Type
Sun 01:02:46 PM 41.2928 -95.8892 178° South 140 161 1,500  Level Minneapolis Center
Sun 01:03:59 PM 41.2383 -95.8872 178° South 182 209 3,700 1,761 Climbing Minneapolis Center
Sun 01:04:18 PM 41.2275 -95.8847 170° South 177 204 4,200 1,770 Climbing Minneapolis Center
Sun 01:05:00 PM 41.1842 -95.8908 186° South 207 238 5,500 1,548 Climbing Minneapolis Center
Sun 01:05:20 PM 41.1706 -95.8911 181° South 190 219 5,800 1,818 Climbing Minneapolis Center
Sun 01:06:06 PM 41.1011 -95.9006 186° South 264 304 7,500 2,032 Climbing Minneapolis Center
Sun 01:06:22 PM 41.0853 -95.9014 182° South 232 267 7,900 1,671 Climbing Minneapolis Center
Sun 01:07:25 PM 41.0122 -95.9086 184° South 250 288 9,700 1,488 Climbing Minneapolis Center
Sun 01:08:27 PM 40.9344 -95.9186 186° South 264 304 11,000 1,113 Climbing Minneapolis Center
Sun 01:09:29 PM 40.8458 -95.9294 185° South 294 338 12,000 968 Climbing Minneapolis Center
Sun 01:10:31 PM 40.7558 -95.9667 197° South 320 368 13,000 968 Climbing Minneapolis Center
Sun 01:11:33 PM 40.6664 -96.0178 203° Southwest 335 386 14,000 968 Climbing Minneapolis Center
Sun 01:12:35 PM 40.5750 -96.0700 203° Southwest 346 398 15,000 1,065 Climbing Minneapolis Center
Sun 01:13:37 PM 40.4647 -96.1331 204° Southwest 355 409 16,200 1,016 Climbing Minneapolis Center
Sun 01:14:39 PM 40.3706 -96.1853 203° Southwest 360 414 17,100 919 Climbing Minneapolis Center
Sun 01:15:41 PM 40.2756 -96.2367 202° Southwest 365 420 18,100 968 Climbing Minneapolis Center
Sun 01:16:43 PM 40.1803 -96.2881 202° Southwest 367 422 19,100 1,027 Climbing Minneapolis Center
Sun 01:17:32 PM 40.0931 -96.3389 204° Southwest 374 430 20,000 956 Climbing Kansas City Center
Sun 01:18:36 PM 40.0031 -96.3875 202° Southwest 376 433 20,900 912 Climbing Kansas City Center
Sun 01:19:37 PM 39.9039 -96.4419 203° Southwest 385 443 21,900 1,008 Climbing Kansas City Center
Sun 01:20:41 PM 39.7861 -96.5067 203° Southwest 386 444 23,000 1,016 Climbing Kansas City Center
Sun 01:21:41 PM 39.6911 -96.5578 202° Southwest 386 444 24,000 1,016 Climbing Kansas City Center
Sun 01:22:45 PM 39.5800 -96.6181 203° Southwest 388 447 25,100 968 Climbing Kansas City Center
Sun 01:23:45 PM 39.4847 -96.6700 203° Southwest 389 448 26,000 992 Climbing Kansas City Center
Sun 01:24:46 PM 39.3700 -96.7308 202° Southwest 396 456 27,100 960 Climbing Kansas City Center
Sun 01:25:50 PM 39.2753 -96.7825 203° Southwest 390 449 28,000 912 Climbing Kansas City Center
Sun 01:26:51 PM 39.1792 -96.8328 202° Southwest 389 448 29,000 1,104 Climbing Kansas City Center
Sun 01:27:55 PM 39.0697 -96.8908 202° Southwest 383 441 30,300 1,161 Climbing Kansas City Center
Sun 01:28:55 PM 38.9833 -96.9392 204° Southwest 378 435 31,400 1,268 Climbing Kansas City Center
Sun 01:29:58 PM 38.8689 -97.0000 202° Southwest 371 427 32,900 1,238 Climbing Kansas City Center
Sun 01:31:01 PM 38.7764 -97.0497 203° Southwest 362 417 34,000 528 Climbing Kansas City Center
Sun 01:32:03 PM 38.6819 -97.0997 202° Southwest 366 421 34,000  Level Kansas City Center
Sun 01:33:04 PM 38.5800 -97.1536 202° Southwest 392 451 34,000  Level Kansas City Center
Sun 01:34:04 PM 38.4714 -97.2111 203° Southwest 413 475 34,000  Level Kansas City Center
Sun 01:35:08 PM 38.3622 -97.2681 202° Southwest 428 493 34,000  Level Kansas City Center
Sun 01:36:09 PM 38.2472 -97.3281 202° Southwest 441 507 34,000  Level Kansas City Center
Sun 01:37:12 PM 38.1078 -97.3983 202° Southwest 447 514 34,000  Level Kansas City Center
Sun 01:38:15 PM 37.9919 -97.4572 202° Southwest 445 512 34,000  Level Kansas City Center
Sun 01:39:16 PM 37.8831 -97.5128 202° Southwest 441 507 34,000  Level Kansas City Center
Sun 01:40:18 PM 37.7675 -97.5733 203° Southwest 445 512 34,000  Level Kansas City Center
Sun 01:41:21 PM 37.6294 -97.5842 184° South 462 532 34,000  Level Kansas City Center
Sun 01:42:23 PM 37.4983 -97.5867 181° South 469 540 34,000  Level Kansas City Center
Sun 01:43:24 PM 37.3675 -97.5886 181° South 469 540 34,000  Level Kansas City Center
Sun 01:44:25 PM 37.2364 -97.5900 180° South 469 540 34,000  Level Kansas City Center
Sun 01:45:29 PM 37.0803 -97.5919 181° South 466 536 34,000  Level Kansas City Center
Sun 01:46:31 PM 36.9511 -97.5922 180° South 464 534 34,000  Level Kansas City Center
Sun 01:47:33 PM 36.8222 -97.5936 180° South 463 533 34,000  Level Kansas City Center
Sun 01:48:33 PM 36.6936 -97.5947 180° South 462 532 34,000  Level Kansas City Center
Sun 01:49:38 PM 36.5539 -97.5956 180° South 458 527 34,000  Level Kansas City Center
Sun 01:50:38 PM 36.4264 -97.5986 181° South 457 526 34,000  Level Kansas City Center
Sun 01:51:39 PM 36.2981 -97.6000 180° South 460 529 34,000  Level Kansas City Center
Sun 01:52:43 PM 36.1706 -97.6017 181° South 460 529 34,000  Level Kansas City Center
Sun 01:53:44 PM 36.0433 -97.6025 180° South 459 528 34,000  Level Kansas City Center
Sun 01:54:48 PM 35.8906 -97.6042 181° South 459 528 34,000  Level Kansas City Center
Sun 01:55:49 PM 35.7625 -97.6061 181° South 460 529 34,000  Level Kansas City Center
Sun 01:56:50 PM 35.6356 -97.6069 180° South 459 528 34,000  Level Kansas City Center
Sun 01:57:29 PM 35.5500 -97.6125 183° South 460 529 34,000  Level Fort Worth Center
Sun 01:58:29 PM 35.4081 -97.6147 181° South 460 529 34,000  Level Fort Worth Center
Sun 01:59:29 PM 35.2789 -97.5864 170° South 460 529 34,000  Level Fort Worth Center
Sun 02:00:29 PM 35.1539 -97.5356 162° South 466 536 34,000  Level Fort Worth Center
Sun 02:01:29 PM 35.0286 -97.4869 162° South 471 542 34,000  Level Fort Worth Center
Sun 02:02:29 PM 34.9036 -97.4389 162° South 476 548 34,000  Level Fort Worth Center
Sun 02:03:29 PM 34.7806 -97.3883 161° South 476 548 34,000  Level Fort Worth Center
Sun 02:04:28 PM 34.6533 -97.3403 163° South 476 548 34,000  Level Fort Worth Center
Sun 02:05:29 PM 34.5281 -97.2925 163° South 476 548 34,000  Level Fort Worth Center
Sun 02:06:29 PM 34.4028 -97.2447 163° South 476 548 34,000  Level Fort Worth Center
Sun 02:07:29 PM 34.2794 -97.1975 162° South 476 548 34,000  Level Fort Worth Center
Sun 02:08:29 PM 34.1522 -97.1600 166° South 476 548 34,000  Level Fort Worth Center
Sun 02:09:29 PM 34.0436 -97.1353 169° South 469 540 34,000  Level Fort Worth Center
Sun 02:10:29 PM 33.9183 -97.1106 171° South 461 531 34,000  Level Fort Worth Center
Sun 02:11:29 PM 33.7911 -97.0836 170° South 461 531 34,000  Level Fort Worth Center
Sun 02:12:29 PM 33.6636 -97.0567 170° South 468 539 34,000  Level Fort Worth Center
Sun 02:13:29 PM 33.5342 -97.0322 171° South 468 539 34,000  Level Fort Worth Center
Sun 02:14:29 PM 33.4108 -97.0053 170° South 468 539 34,000  Level Fort Worth Center
Sun 02:15:29 PM 33.2814 -96.9811 171° South 468 539 34,000  Level Fort Worth Center
Sun 02:16:29 PM 33.1539 -96.9544 170° South 468 539 34,000  Level Fort Worth Center
Sun 02:17:29 PM 33.0100 -96.9278 171° South 468 539 34,000  Level Fort Worth Center
Sun 02:18:29 PM 32.8969 -96.9036 170° South 468 539 34,000  Level Fort Worth Center
Sun 02:19:29 PM 32.7569 -96.8650 167° South 469 540 34,000  Level Fort Worth Center
Sun 02:20:28 PM 32.6317 -96.8311 167° South 469 540 34,000  Level Fort Worth Center
Sun 02:22:29 PM 32.3828 -96.7592 166° South 464 534 34,000  Level Fort Worth Center
Sun 02:23:29 PM 32.2575 -96.7256 167° South 464 534 34,000  Level Fort Worth Center
Sun 02:24:29 PM 32.1319 -96.6922 167° South 464 534 34,000  Level Fort Worth Center
Sun 02:25:29 PM 32.0044 -96.6539 166° South 464 534 34,000  Level Fort Worth Center
Sun 02:26:29 PM 31.8808 -96.6158 165° South 464 534 34,000  Level Fort Worth Center
Sun 02:26:59 PM 31.8150 -96.5964 166° South 469 540 34,000  Level Houston Center
Sun 02:28:01 PM 31.6861 -96.5600 166° South 470 541 34,000 -387 Level Houston Center
Sun 02:29:03 PM 31.5564 -96.5239 167° South 473 544 33,200 -1,597 Descending Houston Center
Sun 02:30:05 PM 31.4336 -96.4681 159° South 469 540 30,700 -2,419 Descending Houston Center
Sun 02:31:07 PM 31.3189 -96.3978 152° Southeast 463 533 28,200 -2,419 Descending Houston Center
Sun 02:32:09 PM 31.2022 -96.3256 152° Southeast 465 535 25,700 -1,984 Descending Houston Center
Sun 02:33:11 PM 31.0878 -96.2536 152° Southeast 463 533 24,100 -1,065 Descending Houston Center
Sun 02:34:13 PM 30.9772 -96.1850 152° Southeast 448 516 23,500 -1,632 Descending Houston Center
Sun 02:35:16 PM 30.8544 -96.1089 152° Southeast 426 490 20,700 -2,640 Descending Houston Center
Sun 02:36:18 PM 30.7556 -96.0492 153° Southeast 401 461 18,000 -2,806 Descending Houston Center
Sun 02:37:20 PM 30.6597 -95.9892 152° Southeast 386 444 14,900 -2,962 Descending Houston Center
Sun 02:37:37 PM 30.6350 -95.9753 154° Southeast 377 434 14,100 -2,806 Descending Houston Center
Sun 02:38:22 PM 30.5692 -95.9333 151° Southeast 371 427 12,000 -3,049 Descending Houston Center
Sun 02:38:38 PM 30.5419 -95.9181 154° Southeast 360 414 11,000 -1,839 Descending Houston Center
Sun 02:39:24 PM 30.4842 -95.8814 151° Southeast 353 406 10,100 -984 Descending Houston Center
Sun 02:39:39 PM 30.4575 -95.8650 152° Southeast 313 360 10,000  Descending Houston Center
Sun 02:40:26 PM 30.4192 -95.8281 140° Southeast 293 337 10,100 -107 Climbing Houston Center
Sun 02:40:35 PM 30.4008 -95.8158 150° Southeast 283 326 9,900 -968 Descending Houston Center
Sun 02:41:28 PM 30.3433 -95.8128 177° South 293 337 9,100 -985 Descending Houston Center
Sun 02:41:42 PM 30.3122 -95.8117 178° South 287 330 8,800 -968 Descending Houston Center
Sun 02:42:30 PM 30.2636 -95.8078 176° South 287 330 8,100 -982 Descending Houston Center
Sun 02:42:37 PM 30.2406 -95.8078 180° South 285 328 7,900 -1,065 Descending Houston Center
Sun 02:43:32 PM 30.1744 -95.7919 168° South 284 327 7,000 -1,082 Descending Houston Center
Sun 02:43:38 PM 30.1672 -95.7850 140° Southeast 268 308 6,800 -1,452 Descending Houston Center
Sun 02:44:34 PM 30.1072 -95.7506 154° Southeast 279 321 5,500 -1,475 Descending Houston Center
Sun 02:44:39 PM 30.0964 -95.7450 156° South 281 323 5,300 -1,355 Descending Houston Center
Sun 02:45:36 PM 30.0442 -95.7086 149° Southeast 266 306 4,100 -1,433 Descending Houston Center
Sun 02:45:46 PM 30.0294 -95.6997 152° Southeast 255 293 3,700 -1,082 Descending Houston Center
Sun 02:46:37 PM 30.0058 -95.6594 124° Southeast 239 275 3,000 -689 Descending Houston Center
Sun 02:46:47 PM 30.0053 -95.6397 92° East 197 227 3,000  Level Houston Center
Sun 02:47:39 PM 30.0067 -95.5956 88° East 209 241 3,000  Level Houston Center
Sun 02:47:49 PM 30.0061 -95.5769 92° East 197 227 3,000 -97 Level Houston Center
Sun 02:48:41 PM 30.0075 -95.5314 88° East 203 234 2,900 -448 Descending Houston Center
Sun 02:48:56 PM 30.0061 -95.5072 94° East 200 230 2,500 -1,065 Descending Houston Center
Sun 02:49:43 PM 30.0072 -95.4581 88° East 197 227 1,800 -873 Descending Houston Center
Sun 02:49:51 PM 30.0075 -95.4539 86° East 178 205 1,700 -871 Descending Houston Center
Sun 02:50:45 PM 30.0078 -95.4025 90° East 187 215 900 -871 Descending Houston Center
Sun 02:50:53 PM 30.0069 -95.4008 120° Southeast 158 182 800 -387 Descending Houston Center
Sun 02:51:47 PM 30.0078 -95.3614 89° East 173 199 500 -333 Descending Houston Center

Login

Don't have an account? Register now (free) for customized features, flight alerts, and more!